Strathkinness, United Kingdom
Current Conditions -  °F | °C
As of 5:50 PM on Friday 28 Nov 2014 (Local Time) from EGQL Reporting Station
Haze Haze  
Wind Chill: 50°   Ceiling: 700
Heat Index: 50°   Visibility: 3mi
Dew Point: 48°   Wind: 10mph
Humidity: 94%   Direction: 80°E
Pressure: 29.85"   Gusts: NA
Location:  56.33°N, 2.87°W
Report Text: EGQL 281750Z 08009KT 5000 BR OVC007 10/09 Q1011 GRN
Loading
Personal Weather Stations






























Interactive Weather Map New forecast layout! Learn more

10-Day Weather Forecast

Advertisements
Track Severe Weather on mobile